USCGC Tern — NEOT — position and weather

sailwx.info

Track history (hours):
 
Tides and Currents Weather Stations Pressure Air Temp Water Temp Dewpoint Dewpoint Depression Visibility Wind Speed Wind Dir Waves Ship Positions

USCGC Tern

Last reported at 2014-Nov-28 11:33 UTC. Time now 2014-Nov-28 12:15 UTC.
Position N 37°49' W 122°22'.

Length 26 m; draft 12 m.

Type: Military. MMSI: 366999711.

Date/timePositionNaut miles runAvg speedWind from/ knotsBaromVisibWave heightAir tempDewpointWater temp
2014-Nov-28 11:33N 37°49' W 122°22'0 0.0
2014-Nov-28 10:30N 37°49' W 122°22'0 0.0
2014-Nov-28 09:30N 37°49' W 122°22'0 0.0
2014-Nov-28 08:30N 37°49' W 122°22'0 0.0
2014-Nov-28 07:33N 37°49' W 122°22'0 0.0
2014-Nov-28 06:30N 37°49' W 122°22'0 0.0
2014-Nov-28 05:33N 37°49' W 122°22'0 0.0
2014-Nov-28 04:33N 37°49' W 122°22'0 0.0
2014-Nov-28 03:33N 37°49' W 122°22'0 0.0
2014-Nov-28 02:33N 37°49' W 122°22'0 0.0
2014-Nov-28 01:28N 37°49' W 122°22'0 0.0
2014-Nov-28 00:31N 37°49' W 122°22'0 0.0
2014-Nov-27 23:28N 37°49' W 122°22'0 0.0
2014-Nov-27 22:33N 37°49' W 122°22'0 0.0
2014-Nov-27 21:27N 37°49' W 122°22'0 0.0
2014-Nov-27 20:33N 37°49' W 122°22'0 0.0
2014-Nov-27 19:33N 37°49' W 122°22'0 0.0
2014-Nov-27 18:33N 37°49' W 122°22'0 0.0
2014-Nov-27 17:30N 37°49' W 122°22'0 0.0
2014-Nov-27 16:33N 37°49' W 122°22'0 0.0
2014-Nov-27 15:33N 37°49' W 122°22'0 0.0
2014-Nov-27 14:30N 37°49' W 122°22'0 0.0
2014-Nov-27 13:25N 37°49' W 122°22'0 0.0
2014-Nov-27 12:33N 37°49' W 122°22'0 0.0
2014-Nov-27 11:33N 37°49' W 122°22'0 0.0
2014-Nov-27 10:30N 37°49' W 122°22'0 0.0
2014-Nov-27 09:33N 37°49' W 122°22'0 0.0
2014-Nov-27 08:33N 37°49' W 122°22'0 0.0
2014-Nov-27 07:33N 37°49' W 122°22'0 0.0
2014-Nov-27 06:33N 37°49' W 122°22'0 0.0
2014-Nov-27 05:33N 37°49' W 122°22'0 0.0
2014-Nov-27 04:33N 37°49' W 122°22'0 0.0
2014-Nov-27 03:31N 37°49' W 122°22'0 0.0
2014-Nov-27 02:33N 37°49' W 122°22'0 0.0
2014-Nov-27 01:28N 37°49' W 122°22'0 0.0
2014-Nov-27 00:34N 37°49' W 122°22'0 0.0
2014-Nov-26 23:33N 37°49' W 122°22'0 0.0
2014-Nov-26 22:33N 37°49' W 122°22'0 0.0
2014-Nov-24 18:33N 37°49' W 122°22'4 3.8
2014-Nov-24 17:33N 37°49' W 122°26'7 7.3
2014-Nov-24 16:33N 37°47' W 122°35'8 7.8
2014-Nov-24 15:31N 37°49' W 122°25'0 0.2
2014-Nov-24 14:33N 37°49' W 122°25'  
2014-Nov-21 18:10N 37°47' W 122°34'6 9.3
2014-Nov-21 17:33N 37°49' W 122°27'5 4.4
2014-Nov-21 16:31N 37°49' W 122°22'0 0.0
2014-Nov-21 15:31N 37°49' W 122°22'0 0.0
2014-Nov-21 14:31N 37°49' W 122°22'0 0.0
2014-Nov-21 13:33N 37°49' W 122°22'0 0.0
2014-Nov-21 12:33N 37°49' W 122°22'0 0.0
2014-Nov-21 11:33N 37°49' W 122°22'0 0.0
2014-Nov-21 10:31N 37°49' W 122°22'0 0.0
2014-Nov-21 09:30N 37°49' W 122°22'0 0.0
2014-Nov-21 08:25N 37°49' W 122°22'0 0.0
2014-Nov-21 07:31N 37°49' W 122°22'0 0.0
2014-Nov-21 06:31N 37°49' W 122°22'0 0.0
2014-Nov-21 05:25N 37°49' W 122°22'0 0.0
2014-Nov-21 04:33N 37°49' W 122°22'0 0.0
2014-Nov-21 03:33N 37°49' W 122°22'0 0.0
2014-Nov-21 02:28N 37°49' W 122°22'0 0.0
2014-Nov-21 01:31N 37°49' W 122°22'0 0.0
2014-Nov-21 00:28N 37°49' W 122°22'0 0.0
2014-Nov-20 23:28N 37°49' W 122°22'0 0.0
2014-Nov-20 22:31N 37°49' W 122°22'0 0.0
2014-Nov-20 21:31N 37°49' W 122°22'1 0.7
2014-Nov-20 20:33N 37°49' W 122°22'2 2.1
2014-Nov-20 19:31N 37°49' W 122°25'4 4.1
2014-Nov-20 18:34N 37°47' W 122°21'1 0.6
2014-Nov-20 17:33N 37°46' W 122°21'4 3.8
2014-Nov-20 16:33N 37°49' W 122°24'4 3.5
2014-Nov-20 15:28N 37°51' W 122°28'0 0.0
2014-Nov-20 14:32N 37°51' W 122°28'0 0.0
2014-Nov-20 13:28N 37°51' W 122°28'0 0.0
2014-Nov-20 12:32N 37°51' W 122°28'0 0.0
2014-Nov-20 11:31N 37°51' W 122°28'0 0.0
2014-Nov-20 10:31N 37°51' W 122°28'0 0.0
2014-Nov-20 09:31N 37°51' W 122°28'0 0.0
2014-Nov-20 08:28N 37°51' W 122°28'0 0.0
2014-Nov-20 07:25N 37°51' W 122°28'0 0.0
2014-Nov-20 06:29N 37°51' W 122°28'0 0.0
2014-Nov-20 04:20N 37°51' W 122°28'0 0.0
2014-Nov-20 03:32N 37°51' W 122°28'0 0.0
2014-Nov-20 02:28N 37°51' W 122°28'0 0.0
2014-Nov-20 01:31N 37°51' W 122°28'6 6.1
2014-Nov-20 00:33N 37°48' W 122°22'0 0.3
2014-Nov-19 23:33N 37°49' W 122°22'0 0.1
2014-Nov-19 22:33N 37°49' W 122°21'6 5.7
2014-Nov-19 21:33N 37°51' W 122°28'0 0.2
2014-Nov-19 20:32N 37°51' W 122°28'0 0.0
2014-Nov-19 19:32N 37°51' W 122°28'4 4.4
2014-Nov-19 18:33N 37°49' W 122°23'5 5.4
2014-Nov-19 17:33N 37°54' W 122°27'1 0.8
2014-Nov-19 16:32N 37°54' W 122°28'0 0.0
2014-Nov-19 15:33N 37°54' W 122°28'0 0.0
2014-Nov-19 14:33N 37°54' W 122°28'0 0.0
2014-Nov-19 13:33N 37°54' W 122°28'0 0.0
2014-Nov-19 12:32N 37°54' W 122°28'0 0.0
2014-Nov-19 11:32N 37°54' W 122°28'0 0.0
2014-Nov-19 10:32N 37°54' W 122°28'0 0.0
2014-Nov-19 09:32N 37°54' W 122°28'0 0.0
2014-Nov-19 08:33N 37°54' W 122°28'0 0.0
2014-Nov-19 07:33N 37°54' W 122°28'0 0.0
2014-Nov-19 06:33N 37°54' W 122°28'2 1.8
2014-Nov-19 05:33N 37°53' W 122°26'1 1.2
2014-Nov-19 04:33N 37°54' W 122°26'1 1.1
2014-Nov-19 03:33N 37°55' W 122°26'8 0.8
2014-Nov-18 17:33N 37°49' W 122°32'4 3.8
2014-Nov-18 16:33N 37°51' W 122°28'0 0.0
2014-Nov-18 15:31N 37°51' W 122°28'0 0.0
2014-Nov-18 14:31N 37°51' W 122°28'0 0.0
2014-Nov-18 13:31N 37°51' W 122°28'0 0.0
2014-Nov-18 12:31N 37°51' W 122°28'  
Track history (hours):
 
Tides and Currents Weather Stations Pressure Air Temp Water Temp Dewpoint Dewpoint Depression Visibility Wind Speed Wind Dir Waves Ship Positions

USCGC Tern

Last reported at 2014-Nov-28 11:33 UTC. Time now 2014-Nov-28 12:15 UTC.
Position N 37°49' W 122°22'.

Length 26 m; draft 12 m.

Type: Military. MMSI: 366999711.

Date/timePositionNaut miles runAvg speedWind from/ knotsBaromVisibWave heightAir tempDewpointWater temp
2014-Nov-28 11:33N 37°49' W 122°22'0 0.0
2014-Nov-28 10:30N 37°49' W 122°22'0 0.0
2014-Nov-28 09:30N 37°49' W 122°22'0 0.0
2014-Nov-28 08:30N 37°49' W 122°22'0 0.0
2014-Nov-28 07:33N 37°49' W 122°22'0 0.0
2014-Nov-28 06:30N 37°49' W 122°22'0 0.0
2014-Nov-28 05:33N 37°49' W 122°22'0 0.0
2014-Nov-28 04:33N 37°49' W 122°22'0 0.0
2014-Nov-28 03:33N 37°49' W 122°22'0 0.0
2014-Nov-28 02:33N 37°49' W 122°22'0 0.0
2014-Nov-28 01:28N 37°49' W 122°22'0 0.0
2014-Nov-28 00:31N 37°49' W 122°22'0 0.0
2014-Nov-27 23:28N 37°49' W 122°22'0 0.0
2014-Nov-27 22:33N 37°49' W 122°22'0 0.0
2014-Nov-27 21:27N 37°49' W 122°22'0 0.0
2014-Nov-27 20:33N 37°49' W 122°22'0 0.0
2014-Nov-27 19:33N 37°49' W 122°22'0 0.0
2014-Nov-27 18:33N 37°49' W 122°22'0 0.0
2014-Nov-27 17:30N 37°49' W 122°22'0 0.0
2014-Nov-27 16:33N 37°49' W 122°22'0 0.0
2014-Nov-27 15:33N 37°49' W 122°22'0 0.0
2014-Nov-27 14:30N 37°49' W 122°22'0 0.0
2014-Nov-27 13:25N 37°49' W 122°22'0 0.0
2014-Nov-27 12:33N 37°49' W 122°22'0 0.0
2014-Nov-27 11:33N 37°49' W 122°22'0 0.0
2014-Nov-27 10:30N 37°49' W 122°22'0 0.0
2014-Nov-27 09:33N 37°49' W 122°22'0 0.0
2014-Nov-27 08:33N 37°49' W 122°22'0 0.0
2014-Nov-27 07:33N 37°49' W 122°22'0 0.0
2014-Nov-27 06:33N 37°49' W 122°22'0 0.0
2014-Nov-27 05:33N 37°49' W 122°22'0 0.0
2014-Nov-27 04:33N 37°49' W 122°22'0 0.0
2014-Nov-27 03:31N 37°49' W 122°22'0 0.0
2014-Nov-27 02:33N 37°49' W 122°22'0 0.0
2014-Nov-27 01:28N 37°49' W 122°22'0 0.0
2014-Nov-27 00:34N 37°49' W 122°22'0 0.0
2014-Nov-26 23:33N 37°49' W 122°22'0 0.0
2014-Nov-26 22:33N 37°49' W 122°22'0 0.0
2014-Nov-24 18:33N 37°49' W 122°22'4 3.8
2014-Nov-24 17:33N 37°49' W 122°26'7 7.3
2014-Nov-24 16:33N 37°47' W 122°35'8 7.8
2014-Nov-24 15:31N 37°49' W 122°25'0 0.2
2014-Nov-24 14:33N 37°49' W 122°25'  
2014-Nov-21 18:10N 37°47' W 122°34'6 9.3
2014-Nov-21 17:33N 37°49' W 122°27'5 4.4
2014-Nov-21 16:31N 37°49' W 122°22'0 0.0
2014-Nov-21 15:31N 37°49' W 122°22'0 0.0
2014-Nov-21 14:31N 37°49' W 122°22'0 0.0
2014-Nov-21 13:33N 37°49' W 122°22'0 0.0
2014-Nov-21 12:33N 37°49' W 122°22'0 0.0
2014-Nov-21 11:33N 37°49' W 122°22'0 0.0
2014-Nov-21 10:31N 37°49' W 122°22'0 0.0
2014-Nov-21 09:30N 37°49' W 122°22'0 0.0
2014-Nov-21 08:25N 37°49' W 122°22'0 0.0
2014-Nov-21 07:31N 37°49' W 122°22'0 0.0
2014-Nov-21 06:31N 37°49' W 122°22'0 0.0
2014-Nov-21 05:25N 37°49' W 122°22'0 0.0
2014-Nov-21 04:33N 37°49' W 122°22'0 0.0
2014-Nov-21 03:33N 37°49' W 122°22'0 0.0
2014-Nov-21 02:28N 37°49' W 122°22'0 0.0
2014-Nov-21 01:31N 37°49' W 122°22'0 0.0
2014-Nov-21 00:28N 37°49' W 122°22'0 0.0
2014-Nov-20 23:28N 37°49' W 122°22'0 0.0
2014-Nov-20 22:31N 37°49' W 122°22'0 0.0
2014-Nov-20 21:31N 37°49' W 122°22'1 0.7
2014-Nov-20 20:33N 37°49' W 122°22'2 2.1
2014-Nov-20 19:31N 37°49' W 122°25'4 4.1
2014-Nov-20 18:34N 37°47' W 122°21'1 0.6
2014-Nov-20 17:33N 37°46' W 122°21'4 3.8
2014-Nov-20 16:33N 37°49' W 122°24'4 3.5
2014-Nov-20 15:28N 37°51' W 122°28'0 0.0
2014-Nov-20 14:32N 37°51' W 122°28'0 0.0
2014-Nov-20 13:28N 37°51' W 122°28'0 0.0
2014-Nov-20 12:32N 37°51' W 122°28'0 0.0
2014-Nov-20 11:31N 37°51' W 122°28'0 0.0
2014-Nov-20 10:31N 37°51' W 122°28'0 0.0
2014-Nov-20 09:31N 37°51' W 122°28'0 0.0
2014-Nov-20 08:28N 37°51' W 122°28'0 0.0
2014-Nov-20 07:25N 37°51' W 122°28'0 0.0
2014-Nov-20 06:29N 37°51' W 122°28'0 0.0
2014-Nov-20 04:20N 37°51' W 122°28'0 0.0
2014-Nov-20 03:32N 37°51' W 122°28'0 0.0
2014-Nov-20 02:28N 37°51' W 122°28'0 0.0
2014-Nov-20 01:31N 37°51' W 122°28'6 6.1
2014-Nov-20 00:33N 37°48' W 122°22'0 0.3
2014-Nov-19 23:33N 37°49' W 122°22'0 0.1
2014-Nov-19 22:33N 37°49' W 122°21'6 5.7
2014-Nov-19 21:33N 37°51' W 122°28'0 0.2
2014-Nov-19 20:32N 37°51' W 122°28'0 0.0
2014-Nov-19 19:32N 37°51' W 122°28'4 4.4
2014-Nov-19 18:33N 37°49' W 122°23'5 5.4
2014-Nov-19 17:33N 37°54' W 122°27'1 0.8
2014-Nov-19 16:32N 37°54' W 122°28'0 0.0
2014-Nov-19 15:33N 37°54' W 122°28'0 0.0
2014-Nov-19 14:33N 37°54' W 122°28'0 0.0
2014-Nov-19 13:33N 37°54' W 122°28'0 0.0
2014-Nov-19 12:32N 37°54' W 122°28'0 0.0
2014-Nov-19 11:32N 37°54' W 122°28'0 0.0
2014-Nov-19 10:32N 37°54' W 122°28'0 0.0
2014-Nov-19 09:32N 37°54' W 122°28'0 0.0
2014-Nov-19 08:33N 37°54' W 122°28'0 0.0
2014-Nov-19 07:33N 37°54' W 122°28'0 0.0
2014-Nov-19 06:33N 37°54' W 122°28'2 1.8
2014-Nov-19 05:33N 37°53' W 122°26'1 1.2
2014-Nov-19 04:33N 37°54' W 122°26'1 1.1
2014-Nov-19 03:33N 37°55' W 122°26'8 0.8
2014-Nov-18 17:33N 37°49' W 122°32'4 3.8
2014-Nov-18 16:33N 37°51' W 122°28'0 0.0
2014-Nov-18 15:31N 37°51' W 122°28'0 0.0
2014-Nov-18 14:31N 37°51' W 122°28'0 0.0
2014-Nov-18 13:31N 37°51' W 122°28'0 0.0
2014-Nov-18 12:31N 37°51' W 122°28'  

Dump ship's entire track history